ハノーファー の空港の天気 - METARとTAF

ハノーファー空港 ( EDDV / HAJ ) - ドイツ ハノーファー
飛行場実況気象(Metar)
観測時間07/15 12:50 CEST (07/15 10:50 UTC)
風向・風速北西 3m/s
視程10km以上
天気現象
少しの雲 雲底高度 370m
全天を覆う雲 雲底高度 1040m
気温14℃
湿度88%
気圧1014hPa
METAREDDV 151050Z 31005KT 9999 FEW012 OVC034 14/12 Q1014 NOSIG
過去の天気等 Google飛行場航空写真 Wunderground天気予報

過去48時間のMETAR

飛行場予報(TAF)
発表時間: 7/15 07:00 CEST (7/15 05:00 UTC)
予報対象時間: 15日8時 CEST ~ 16日8時 CEST
風向・風速不定 2m/s
視程10km以上
全天の8割程度の雲 雲底高度 610m
15日8時 CEST ~ 15日10時 CEST に一時的に
視程4500m
天気現象弱い雨霧雨
全天の8割程度の雲 雲底高度 210m
15日8時 CEST ~ 15日9時 CEST に 確率 30% で一時的に
視程2000m
天気現象もや
全天の8割程度の雲 雲底高度 120m
15日10時 CEST ~ 15日12時 CEST に徐々に
風向・風速北西 4m/s
15日19時 CEST ~ 15日22時 CEST に 確率 30% で一時的に
天気現象しゅう雨
全天の8割程度の積乱雲 雲底高度 610m
15日21時 CEST ~ 15日23時 CEST に徐々に
風向・風速不定 2m/s
TAF EDDV 150500Z 1506/1606 VRB03KT 9999 BKN020
TEMPO 1506/1508 4500 -RADZ BKN007
PROB30 TEMPO 1506/1507 2000 BR BKN004
BECMG 1508/1510 31007KT
PROB30 TEMPO 1517/1520 SHRA BKN020CB
BECMG 1519/1521 VRB03KT